This is the latest recevied weather packets stored in our database for station/object KE9DBJ-13. If no packets are shown the sender has not sent any weather packets the latest 10 day(s).
| Time | Temp. | Humidity | Pressure | Rain* | Wind** | Luminosity | Snow |
|---|---|---|---|---|---|---|---|
| 1777840803 | 19.44° C | 34% | 1014.6 hPa | 0 mm | - | - | - |
| 1777840203 | 20° C | 33% | 1014.5 hPa | 0 mm | - | - | - |
| 1777839603 | 20° C | 33% | 1014.6 hPa | 0 mm | - | - | - |
| 1777839003 | 20° C | 34% | 1014.9 hPa | 0 mm | - | - | - |
| 1777838403 | 20° C | 34% | 1014.9 hPa | 0 mm | - | - | - |
| 1777837803 | 20° C | 34% | 1015.1 hPa | 0 mm | - | - | - |
| 1777837203 | 20° C | 34% | 1015.4 hPa | 0 mm | - | - | - |
| 1777836602 | 20° C | 33% | 1015.7 hPa | 0 mm | - | - | - |
| 1777836002 | 20° C | 36% | 1016.1 hPa | 0 mm | - | - | - |
| 1777835402 | 19.44° C | 34% | 1016.1 hPa | 0 mm | - | - | - |
| 1777834802 | 19.44° C | 34% | 1016.3 hPa | 0 mm | - | - | - |
| 1777834202 | 18.89° C | 34% | 1016.5 hPa | 0 mm | - | - | - |
| 1777833602 | 19.44° C | 34% | 1016.6 hPa | 0 mm | - | - | - |
| 1777833002 | 19.44° C | 33% | 1016.6 hPa | 0 mm | - | - | - |
| 1777832402 | 20° C | 36% | 1016.7 hPa | 0 mm | - | - | - |
| 1777831802 | 18.89° C | 32% | 1016.8 hPa | 0 mm | - | - | - |
| 1777831203 | 18.89° C | 34% | 1017.1 hPa | 0 mm | - | - | - |
| 1777830603 | 18.89° C | 35% | 1017.1 hPa | 0 mm | - | - | - |
| 1777830003 | 18.89° C | 34% | 1017.4 hPa | 0 mm | - | - | - |
| 1777829403 | 18.33° C | 32% | 1017.5 hPa | 0 mm | - | - | - |
| 1777828803 | 18.89° C | 35% | 1017.7 hPa | 0 mm | - | - | - |
| 1777828203 | 18.33° C | 36% | 1018 hPa | 0 mm | - | - | - |
| 1777827602 | 17.78° C | 33% | 1018.3 hPa | 0 mm | - | - | - |
| 1777827003 | 17.78° C | 34% | 1018.3 hPa | 0 mm | - | - | - |
| 1777826402 | 18.33° C | 36% | 1018.6 hPa | 0 mm | - | - | - |
* Rain latest hour (hover to see other rain measurements)
** Current wind speed in m/s (hover to see current wind gust speed)